Time;durP1;ratioP1;P1;durP2;ratioP2;P2;SDS_P1;SDS_P2;PMS_P1;PMS_P2;Temp;Humidity;BMP_temperature;BMP_pressure;BME280_temperature;BME280_humidity;BME280_pressure;Samples;Min_cycle;Max_cycle;Signal;HPM_P1;HPM_P2
2021/11/18 00:01:19;;;;;;;25.20;11.03;;;;;;;6.19;100.00;101335.56;4989788;28;20101;-81
2021/11/18 00:03:47;;;;;;;28.80;13.63;;;;;;;6.19;100.00;101338.19;5003924;28;20045;-83
2021/11/18 00:06:15;;;;;;;23.40;11.43;;;;;;;6.10;100.00;101346.88;4988694;28;20787;-81
2021/11/18 00:08:41;;;;;;;28.60;11.27;;;;;;;5.99;100.00;101356.38;5001632;28;20096;-81
2021/11/18 00:11:09;;;;;;;23.83;9.73;;;;;;;5.98;100.00;101344.16;5007817;28;20046;-82
2021/11/18 00:13:42;;;;;;;22.97;11.17;;;;;;;5.91;100.00;101360.69;4988111;28;20311;-81
2021/11/18 00:16:12;;;;;;;21.60;10.10;;;;;;;5.83;100.00;101370.19;5020097;28;20050;-81
2021/11/18 00:18:40;;;;;;;22.20;10.00;;;;;;;5.84;100.00;101369.31;5015488;28;20042;-81
2021/11/18 00:21:11;;;;;;;23.07;10.33;;;;;;;5.82;100.00;101365.81;5012222;28;20057;-81
2021/11/18 00:23:42;;;;;;;27.17;11.97;;;;;;;5.78;100.00;101366.63;5011126;28;20535;-81
2021/11/18 00:26:12;;;;;;;22.00;11.53;;;;;;;5.82;100.00;101374.53;4989790;28;20553;-81
2021/11/18 00:28:39;;;;;;;25.43;12.80;;;;;;;5.80;100.00;101378.91;4996377;28;20071;-81
2021/11/18 00:31:07;;;;;;;23.20;11.63;;;;;;;5.77;100.00;101377.97;4985932;28;20041;-82
2021/11/18 00:33:36;;;;;;;21.83;10.47;;;;;;;5.76;100.00;101378.84;5001479;28;20042;-83
2021/11/18 00:36:04;;;;;;;27.47;12.87;;;;;;;5.72;100.00;101388.44;4984809;28;20038;-81
2021/11/18 00:38:35;;;;;;;24.40;11.03;;;;;;;5.62;100.00;101384.78;4990073;28;20127;-81
2021/11/18 00:41:03;;;;;;;26.40;11.07;;;;;;;5.61;100.00;101390.03;5001095;28;20030;-83
2021/11/18 00:43:29;;;;;;;24.63;12.13;;;;;;;5.66;100.00;101398.84;5003493;28;20104;-85
2021/11/18 00:45:57;;;;;;;19.87;10.67;;;;;;;5.60;100.00;101394.41;4988575;28;20041;-82
2021/11/18 00:48:24;;;;;;;28.13;13.10;;;;;;;5.69;100.00;101390.13;5001828;28;20056;-84
2021/11/18 00:51:01;;;;;;;24.20;12.03;;;;;;;5.67;100.00;101389.22;4986415;28;20541;-83
2021/11/18 00:53:36;;;;;;;22.63;11.00;;;;;;;5.56;100.00;101389.13;4985726;28;20131;-82
2021/11/18 00:56:06;;;;;;;32.57;12.53;;;;;;;5.57;100.00;101396.13;5002480;28;20052;-84
2021/11/18 00:58:34;;;;;;;26.57;13.37;;;;;;;5.55;100.00;101397.81;4998084;28;20038;-81
2021/11/18 01:01:04;;;;;;;34.23;13.30;;;;;;;5.59;100.00;101391.75;4993095;28;20133;-86
2021/11/18 01:03:32;;;;;;;28.07;12.43;;;;;;;5.56;100.00;101396.97;4994394;28;20050;-81
2021/11/18 01:05:59;;;;;;;31.00;13.53;;;;;;;5.55;100.00;101388.25;5003223;28;20504;-82
2021/11/18 01:08:26;;;;;;;30.20;12.77;;;;;;;5.56;100.00;101395.22;5001789;28;20069;-81
2021/11/18 01:11:06;;;;;;;30.50;14.30;;;;;;;5.56;100.00;101387.38;4985368;28;20100;-82
2021/11/18 01:13:34;;;;;;;27.53;12.27;;;;;;;5.60;100.00;101390.91;4983848;28;20038;-82
2021/11/18 01:16:03;;;;;;;25.70;12.83;;;;;;;5.53;100.00;101392.56;5018578;28;20041;-84
2021/11/18 01:18:30;;;;;;;32.33;13.20;;;;;;;5.57;100.00;101402.22;4991331;28;20053;-81
2021/11/18 01:20:59;;;;;;;24.80;11.67;;;;;;;5.51;100.00;101394.28;5025245;28;20041;-82
2021/11/18 01:23:29;;;;;;;26.63;12.17;;;;;;;5.56;100.00;101395.22;4981394;28;20079;-81
2021/11/18 01:25:55;;;;;;;29.23;12.77;;;;;;;5.60;100.00;101386.53;4979188;28;20076;-83
2021/11/18 01:28:23;;;;;;;24.93;12.40;;;;;;;5.57;100.00;101396.13;4994853;28;20458;-81
2021/11/18 01:30:50;;;;;;;27.30;13.57;;;;;;;5.51;100.00;101402.16;5001091;28;20047;-83
2021/11/18 01:33:17;;;;;;;26.77;11.03;;;;;;;5.51;100.00;101411.75;4993577;28;20049;-86
2021/11/18 01:35:46;;;;;;;23.70;11.67;;;;;;;5.57;100.00;101409.22;5011392;28;20101;-81
2021/11/18 01:38:14;;;;;;;29.10;13.13;;;;;;;5.51;100.00;101404.78;5012121;28;20155;-82
2021/11/18 01:40:48;;;;;;;27.87;12.23;;;;;;;5.42;100.00;101412.53;5013905;28;20506;-81
2021/11/18 01:43:16;;;;;;;25.80;11.25;;;;;;;5.39;100.00;101422.09;4981173;28;20096;-84
2021/11/18 01:45:43;;;;;;;20.97;10.60;;;;;;;5.34;100.00;101412.41;4990992;28;20492;-81
2021/11/18 01:48:10;;;;;;;26.87;11.50;;;;;;;5.36;100.00;101410.69;5005624;28;20095;-81
2021/11/18 01:50:39;;;;;;;23.27;10.27;;;;;;;5.25;100.00;101414.03;4991204;28;20491;-81
2021/11/18 01:53:10;;;;;;;28.07;12.27;;;;;;;5.18;100.00;101414.81;5005202;28;20053;-84
2021/11/18 01:55:37;;;;;;;29.13;12.97;;;;;;;5.16;100.00;101422.66;5002062;28;20048;-81
2021/11/18 01:58:05;;;;;;;26.03;11.63;;;;;;;5.11;100.00;101426.06;5051401;23;20035;-85
2021/11/18 02:00:36;;;;;;;27.93;11.70;;;;;;;5.17;100.00;101436.63;4988945;28;20495;-82
2021/11/18 02:03:03;;;;;;;28.70;12.30;;;;;;;5.18;100.00;101433.16;4974861;28;20054;-82
2021/11/18 02:05:34;;;;;;;26.87;10.73;;;;;;;5.13;100.00;101427.88;4973723;28;20046;-83
2021/11/18 02:08:04;;;;;;;23.93;11.20;;;;;;;5.17;100.00;101434.03;4975026;28;20042;-89
2021/11/18 02:10:36;;;;;;;24.73;12.53;;;;;;;5.16;100.00;101421.78;4957562;28;20050;-83
2021/11/18 02:13:03;;;;;;;24.70;11.00;;;;;;;5.19;100.00;101421.81;4959538;28;20454;-84
2021/11/18 02:15:32;;;;;;;25.03;11.20;;;;;;;5.17;100.00;101441.88;4989573;28;20051;-83
2021/11/18 02:18:00;;;;;;;24.63;11.83;;;;;;;5.18;100.00;101441.00;4975463;28;20100;-82
2021/11/18 02:20:32;;;;;;;26.67;11.53;;;;;;;5.14;100.00;101434.88;4973767;28;20050;-83
2021/11/18 02:23:00;;;;;;;22.90;10.13;;;;;;;5.15;100.00;101430.50;4991370;28;20046;-82
2021/11/18 02:25:30;;;;;;;29.73;12.43;;;;;;;5.20;100.00;101429.69;4989725;28;20046;-82
2021/11/18 02:27:57;;;;;;;21.70;11.00;;;;;;;5.13;100.00;101435.72;4974330;28;20043;-84
2021/11/18 02:30:26;;;;;;;21.73;10.63;;;;;;;5.11;100.00;101426.94;4957468;28;20047;-82
2021/11/18 02:32:54;;;;;;;24.03;10.37;;;;;;;5.08;100.00;101426.91;4990529;28;20046;-82
2021/11/18 02:35:24;;;;;;;26.20;10.73;;;;;;;5.12;100.00;101436.56;4961389;28;20054;-82
2021/11/18 02:37:55;;;;;;;20.20;10.23;;;;;;;5.09;100.00;101431.28;4978819;28;20054;-81
2021/11/18 02:40:24;;;;;;;25.37;10.57;;;;;;;5.14;100.00;101428.75;4980810;28;20050;-81
2021/11/18 02:42:53;;;;;;;28.63;11.40;;;;;;;5.07;100.00;101420.78;4974391;28;20050;-84
2021/11/18 02:45:26;;;;;;;21.23;9.57;;;;;;;5.11;100.00;101426.06;4956607;28;20514;-82
2021/11/18 02:47:54;;;;;;;23.47;10.33;;;;;;;5.14;100.00;101428.75;4964393;28;20086;-82
2021/11/18 02:50:25;;;;;;;23.60;11.07;;;;;;;5.11;100.00;101431.31;4987698;28;20496;-84
2021/11/18 02:52:52;;;;;;;21.70;10.27;;;;;;;5.13;100.00;101435.72;5009661;28;20049;-84
2021/11/18 02:55:25;;;;;;;25.93;10.83;;;;;;;5.09;100.00;101442.63;4999846;28;20043;-82
2021/11/18 02:57:52;;;;;;;19.40;10.33;;;;;;;5.04;100.00;101448.66;4973976;28;20046;-83
2021/11/18 03:00:22;;;;;;;25.53;10.63;;;;;;;4.99;100.00;101443.38;4989614;28;20069;-81
2021/11/18 03:02:49;;;;;;;27.17;10.43;;;;;;;5.02;100.00;101448.66;4971439;28;20050;-82
2021/11/18 03:05:18;;;;;;;24.30;10.47;;;;;;;5.12;100.00;101447.03;4958123;28;20406;-84
2021/11/18 03:07:46;;;;;;;22.77;10.70;;;;;;;5.05;100.00;101453.06;4981407;28;20053;-82
2021/11/18 03:10:15;;;;;;;20.10;9.47;;;;;;;5.07;100.00;101451.34;4976342;28;20046;-81
2021/11/18 03:12:42;;;;;;;31.33;11.67;;;;;;;5.06;100.00;101453.09;4997037;28;20053;-83
2021/11/18 03:15:14;;;;;;;22.17;10.27;;;;;;;5.06;100.00;101453.09;4995856;28;20042;-83
2021/11/18 03:17:41;;;;;;;23.30;11.17;;;;;;;5.11;100.00;101444.41;4994200;28;20116;-82
2021/11/18 03:20:10;;;;;;;26.77;9.97;;;;;;;5.11;100.00;101454.88;4992306;28;20045;-85
2021/11/18 03:22:37;;;;;;;21.20;9.13;;;;;;;5.02;100.00;101448.66;4993838;28;20046;-81
2021/11/18 03:25:05;;;;;;;22.77;10.47;;;;;;;5.06;100.00;101453.09;4963466;28;20042;-81
2021/11/18 03:27:31;;;;;;;19.87;10.13;;;;;;;5.09;100.00;101455.75;4980756;28;20047;-81
2021/11/18 03:29:58;;;;;;;20.70;9.80;;;;;;;5.08;100.00;101445.25;5001352;28;20638;-84
2021/11/18 03:32:25;;;;;;;22.27;12.57;;;;;;;5.10;100.00;101448.75;4960451;28;20043;-83
2021/11/18 03:34:51;;;;;;;22.47;10.60;;;;;;;5.13;100.00;101455.78;4975169;28;20042;-81
2021/11/18 03:37:18;;;;;;;23.13;9.07;;;;;;;5.09;100.00;101458.34;4978327;28;20125;-80
2021/11/18 03:39:45;;;;;;;20.93;10.17;;;;;;;4.99;100.00;101464.31;4977161;28;20093;-85
2021/11/18 03:42:12;;;;;;;20.50;9.30;;;;;;;4.99;100.00;101464.31;4994033;28;20092;-81
2021/11/18 03:44:39;;;;;;;17.87;9.17;;;;;;;5.01;100.00;101465.22;4991881;28;20455;-86
2021/11/18 03:47:10;;;;;;;17.57;9.47;;;;;;;4.96;100.00;101455.53;4992959;28;20050;-81
2021/11/18 03:49:37;;;;;;;20.63;9.40;;;;;;;4.88;100.00;101459.78;4957945;28;20042;-81
2021/11/18 03:52:07;;;;;;;19.07;9.80;;;;;;;4.88;100.00;101470.25;4961794;28;20046;-81
2021/11/18 03:54:38;;;;;;;22.27;9.17;;;;;;;4.94;100.00;101467.72;4992027;28;20046;-83
2021/11/18 03:57:05;;;;;;;19.07;8.70;;;;;;;4.86;100.00;101458.88;4976459;28;20041;-84
2021/11/18 03:59:35;;;;;;;17.97;9.50;;;;;;;4.86;100.00;101469.34;4959758;28;20046;-83
2021/11/18 04:02:02;;;;;;;21.90;9.40;;;;;;;4.84;100.00;101458.84;4961103;28;20045;-83
2021/11/18 04:04:44;;;;;;;21.43;9.53;;;;;;;4.83;100.00;101464.94;4971676;28;20635;-81
2021/11/18 04:07:13;;;;;;;21.33;9.87;;;;;;;4.76;100.00;101468.31;4972552;28;20056;-81
2021/11/18 04:09:42;;;;;;;24.47;9.73;;;;;;;4.79;100.00;101461.41;4994260;28;20431;-82
2021/11/18 04:12:10;;;;;;;22.00;8.60;;;;;;;4.75;100.00;101463.94;4994233;28;20042;-82
2021/11/18 04:14:38;;;;;;;17.90;9.10;;;;;;;4.68;100.00;101464.69;4976684;28;20489;-83
2021/11/18 04:17:05;;;;;;;23.93;9.33;;;;;;;4.66;100.00;101474.25;4993717;28;20054;-82
2021/11/18 04:19:32;;;;;;;21.87;8.40;;;;;;;4.63;100.00;101492.53;4976220;28;20133;-82
2021/11/18 04:22:00;;;;;;;18.73;9.43;;;;;;;4.75;100.00;101487.50;5001900;28;20038;-81
2021/11/18 04:24:29;;;;;;;19.27;8.27;;;;;;;4.66;100.00;101493.47;4996050;28;20056;-83
2021/11/18 04:26:56;;;;;;;19.63;10.03;;;;;;;4.64;100.00;101486.44;4981174;28;20062;-83
2021/11/18 04:29:28;;;;;;;21.93;9.27;;;;;;;4.67;100.00;101497.84;4976347;28;20530;-83
2021/11/18 04:32:01;;;;;;;19.60;10.63;;;;;;;4.67;100.00;101489.97;4978384;28;20046;-84
2021/11/18 04:34:28;;;;;;;20.30;8.17;;;;;;;4.56;100.00;101483.69;4960254;28;20459;-81
2021/11/18 04:36:54;;;;;;;21.70;8.87;;;;;;;4.66;100.00;101476.88;4976226;28;20046;-81
2021/11/18 04:39:21;;;;;;;16.83;9.03;;;;;;;4.59;100.00;101486.34;4959505;28;20046;-82
2021/11/18 04:41:48;;;;;;;20.93;9.03;;;;;;;4.57;100.00;101484.56;4966408;28;20043;-82
2021/11/18 04:44:16;;;;;;;17.80;8.27;;;;;;;4.70;100.00;101474.31;4978930;28;20050;-81
2021/11/18 04:46:47;;;;;;;23.93;8.87;;;;;;;4.65;100.00;101475.13;4982825;28;20108;-82
2021/11/18 04:49:15;;;;;;;22.27;9.30;;;;;;;4.62;100.00;101470.69;4979353;28;20046;-82
2021/11/18 04:51:41;;;;;;;19.70;8.70;;;;;;;4.59;100.00;101485.47;5012511;28;20092;-81
2021/11/18 04:54:09;;;;;;;24.60;10.07;;;;;;;4.59;100.00;101488.09;4986188;28;20054;-81
2021/11/18 04:56:37;;;;;;;18.23;8.80;;;;;;;4.47;100.00;101476.56;4964803;28;20458;-82
2021/11/18 04:59:04;;;;;;;24.10;8.27;;;;;;;4.61;100.00;101484.63;4965266;28;20038;-80
2021/11/18 05:01:34;;;;;;;20.07;8.57;;;;;;;4.61;100.00;101489.00;4974488;28;20038;-80
2021/11/18 05:04:03;;;;;;;19.10;8.33;;;;;;;4.57;100.00;101481.97;4987585;28;20168;-79
2021/11/18 05:06:33;;;;;;;22.00;8.40;;;;;;;4.60;100.00;101487.22;4998519;28;20407;-80
2021/11/18 05:09:00;;;;;;;21.23;9.63;;;;;;;4.62;100.00;101483.78;4985093;28;20050;-80
2021/11/18 05:11:28;;;;;;;20.73;8.47;;;;;;;4.64;100.00;101489.94;4992572;28;20061;-80
2021/11/18 05:13:55;;;;;;;20.80;9.17;;;;;;;4.63;100.00;101487.31;4984376;28;20070;-80
2021/11/18 05:16:21;;;;;;;22.23;8.47;;;;;;;4.59;100.00;101491.59;4985487;28;20470;-80
2021/11/18 05:18:49;;;;;;;20.97;8.77;;;;;;;4.61;100.00;101489.00;4969519;28;20061;-80
2021/11/18 05:21:22;;;;;;;21.27;9.73;;;;;;;4.61;100.00;101489.00;4973023;28;20038;-80
2021/11/18 05:23:51;;;;;;;24.40;9.87;;;;;;;4.64;100.00;101486.44;4985737;28;20539;-80
2021/11/18 05:26:21;;;;;;;23.27;8.77;;;;;;;4.69;100.00;101476.91;4982467;28;20297;-80
2021/11/18 05:28:48;;;;;;;25.33;10.93;;;;;;;4.68;100.00;101483.88;4976892;28;20471;-80
2021/11/18 05:31:17;;;;;;;24.27;9.97;;;;;;;4.76;100.00;101490.13;4963443;28;20048;-80
2021/11/18 05:33:44;;;;;;;19.80;9.33;;;;;;;4.71;100.00;101493.56;4978019;28;20050;-83
2021/11/18 05:36:12;;;;;;;19.33;10.77;;;;;;;4.73;100.00;101495.34;4962200;28;20047;-80
2021/11/18 05:38:39;;;;;;;21.43;10.03;;;;;;;4.74;100.00;101484.00;4972281;28;20085;-81
2021/11/18 05:41:06;;;;;;;22.13;10.03;;;;;;;4.80;100.00;101493.69;5187984;23;20592;-84
2021/11/18 05:43:35;;;;;;;25.37;10.97;;;;;;;4.84;100.00;101485.03;4992502;28;20050;-81
2021/11/18 05:46:03;;;;;;;29.20;10.97;;;;;;;4.92;100.00;101503.47;5011115;28;20293;-81
2021/11/18 05:48:29;;;;;;;27.93;10.77;;;;;;;4.87;100.00;101497.28;4976906;28;20046;-81
2021/11/18 05:50:58;;;;;;;27.20;11.17;;;;;;;4.87;100.00;101499.91;4997604;28;20042;-81
2021/11/18 05:53:31;;;;;;;27.33;10.33;;;;;;;4.95;100.00;101504.41;4996511;28;20108;-84
2021/11/18 05:56:00;;;;;;;28.42;12.27;;;;;;;5.05;100.00;101508.94;4997175;28;20049;-81
2021/11/18 05:58:29;;;;;;;24.40;11.53;;;;;;;5.07;100.00;101506.34;4992755;28;20406;-81
2021/11/18 06:01:01;;;;;;;26.30;11.53;;;;;;;5.06;100.00;101515.94;4989170;28;20050;-82
2021/11/18 06:03:28;;;;;;;23.07;11.73;;;;;;;5.07;100.00;101519.44;4995189;28;20104;-81
2021/11/18 06:05:54;;;;;;;22.27;11.37;;;;;;;5.14;100.00;101517.81;5009345;28;20103;-81
2021/11/18 06:08:21;;;;;;;28.23;13.90;;;;;;;5.07;100.00;101519.44;4982068;28;20046;-82
2021/11/18 06:10:50;;;;;;;28.33;12.87;;;;;;;5.19;100.00;101521.34;4996702;28;20460;-81
2021/11/18 06:13:17;;;;;;;29.47;12.10;;;;;;;5.22;100.00;101519.69;5001072;28;20053;-82
2021/11/18 06:15:44;;;;;;;29.13;12.93;;;;;;;5.24;100.00;101522.31;4995792;28;20041;-82
2021/11/18 06:18:11;;;;;;;25.97;12.07;;;;;;;5.25;100.00;101532.81;4995351;28;20049;-83
2021/11/18 06:20:38;;;;;;;32.00;13.27;;;;;;;5.28;100.00;101538.09;4996667;28;20462;-81
2021/11/18 06:23:07;;;;;;;27.83;11.77;;;;;;;5.26;100.00;101534.56;4979814;28;20061;-83
2021/11/18 06:25:35;;;;;;;25.23;12.00;;;;;;;5.33;100.00;101530.31;4995955;28;20415;-81
2021/11/18 06:28:02;;;;;;;21.97;10.23;;;;;;;5.33;100.00;101536.44;4995687;28;20057;-81
2021/11/18 06:30:42;;;;;;;23.07;11.47;;;;;;;5.34;100.00;101550.41;4993208;28;20056;-81
2021/11/18 06:33:09;;;;;;;31.40;12.83;;;;;;;5.40;100.00;101541.78;4976133;28;20077;-83
2021/11/18 06:35:36;;;;;;;20.37;11.43;;;;;;;5.37;100.00;101551.31;4978782;28;20569;-84
2021/11/18 06:38:23;;;;;;;25.50;11.20;;;;;;;5.38;100.00;101554.81;4997152;28;20095;-82
2021/11/18 06:40:50;;;;;;;27.43;10.87;;;;;;;5.32;100.00;101565.25;5005602;28;20042;-82
2021/11/18 06:43:21;;;;;;;23.93;11.00;;;;;;;5.40;100.00;101563.63;5014658;28;20417;-81
2021/11/18 06:45:49;;;;;;;24.20;10.60;;;;;;;5.34;100.00;101572.25;4998457;28;20049;-80
2021/11/18 06:48:18;;;;;;;26.40;10.30;;;;;;;5.44;100.00;101565.41;4998190;28;20044;-81
2021/11/18 06:50:45;;;;;;;18.10;10.20;;;;;;;5.44;100.00;101562.78;4987143;28;20510;-81
2021/11/18 06:53:13;;;;;;;21.97;10.00;;;;;;;5.44;100.00;101565.41;4978412;28;20042;-84
2021/11/18 06:55:42;;;;;;;26.53;10.10;;;;;;;5.43;100.00;101563.66;4979097;28;20050;-81
2021/11/18 06:58:10;;;;;;;26.70;11.30;;;;;;;5.42;100.00;101556.66;4995008;28;20042;-81
2021/11/18 07:00:37;;;;;;;20.43;9.57;;;;;;;5.41;100.00;101567.13;4978078;28;20049;-83
2021/11/18 07:03:09;;;;;;;20.17;9.17;;;;;;;5.55;100.00;101578.66;4979300;28;20045;-81
2021/11/18 07:05:36;;;;;;;22.10;10.30;;;;;;;5.56;100.00;101570.84;4978159;28;20096;-81
2021/11/18 07:08:04;;;;;;;28.37;11.07;;;;;;;5.53;100.00;101580.38;4979368;28;20568;-83
2021/11/18 07:10:31;;;;;;;22.23;10.37;;;;;;;5.61;100.00;101590.13;4977919;28;20048;-80
2021/11/18 07:12:58;;;;;;;23.67;9.33;;;;;;;5.56;100.00;101588.31;4979050;28;20042;-82
2021/11/18 07:15:26;;;;;;;22.33;8.73;;;;;;;5.60;100.00;101585.75;4993474;28;20034;-81
2021/11/18 07:17:57;;;;;;;30.67;11.20;;;;;;;5.63;100.00;101591.06;4979200;28;20046;-81
2021/11/18 07:20:27;;;;;;;21.87;9.40;;;;;;;5.61;100.00;101595.38;4993627;28;20411;-81
2021/11/18 07:22:53;;;;;;;23.63;10.10;;;;;;;5.72;100.00;101589.41;4978872;28;20093;-81
2021/11/18 07:25:23;;;;;;;17.90;9.17;;;;;;;5.65;100.00;101591.94;4993751;28;20046;-81
2021/11/18 07:27:50;;;;;;;24.00;9.33;;;;;;;5.67;100.00;101591.97;4974725;28;20039;-81
2021/11/18 07:30:19;;;;;;;16.43;7.80;;;;;;;5.64;100.00;101590.19;4977216;28;20104;-81
2021/11/18 07:32:46;;;;;;;19.43;9.10;;;;;;;5.69;100.00;101595.47;4994072;28;20501;-84
2021/11/18 07:35:13;;;;;;;23.63;9.30;;;;;;;5.70;100.00;101598.97;4972280;28;20113;-81
2021/11/18 07:37:40;;;;;;;17.23;8.60;;;;;;;5.70;100.00;101597.25;4975149;28;20042;-81
2021/11/18 07:40:09;;;;;;;18.43;8.03;;;;;;;5.69;100.00;101602.47;5009208;28;20069;-81
2021/11/18 07:42:36;;;;;;;20.03;8.50;;;;;;;5.82;100.00;101601.81;4978595;28;20042;-82
2021/11/18 07:45:04;;;;;;;18.07;8.53;;;;;;;5.78;100.00;101602.59;4976968;28;20038;-81
2021/11/18 07:47:31;;;;;;;19.37;8.07;;;;;;;5.79;100.00;101600.00;4993893;28;20092;-81
2021/11/18 07:49:58;;;;;;;21.23;8.83;;;;;;;5.84;100.00;101589.59;4976957;28;20057;-84
2021/11/18 07:52:24;;;;;;;16.97;8.17;;;;;;;5.85;100.00;101601.84;4994636;28;20046;-81
2021/11/18 07:54:51;;;;;;;20.87;8.53;;;;;;;5.84;100.00;101602.69;4993060;28;20046;-82
2021/11/18 07:57:18;;;;;;;26.20;9.80;;;;;;;5.92;100.00;101607.22;4978592;28;20050;-81
2021/11/18 07:59:56;;;;;;;19.77;7.77;;;;;;;5.83;100.00;101607.06;4980425;28;20104;-83
2021/11/18 08:02:23;;;;;;;20.07;7.53;;;;;;;5.84;100.00;101608.81;5033682;28;20573;-82
2021/11/18 08:04:50;;;;;;;18.67;8.90;;;;;;;5.90;100.00;101606.31;5034167;28;20048;-81
2021/11/18 08:07:17;;;;;;;17.97;8.57;;;;;;;5.95;100.00;101606.38;5042849;28;20041;-81
2021/11/18 08:09:43;;;;;;;20.87;8.90;;;;;;;5.90;100.00;101608.03;5002611;28;20050;-81
2021/11/18 08:12:11;;;;;;;15.97;8.70;;;;;;;5.91;100.00;101615.06;5016182;28;20046;-83
2021/11/18 08:14:38;;;;;;;26.07;8.53;;;;;;;5.94;100.00;101622.97;5014723;28;20084;-83
2021/11/18 08:17:04;;;;;;;21.40;9.73;;;;;;;5.98;100.00;101627.41;5016589;28;20461;-84
2021/11/18 08:19:31;;;;;;;23.17;8.83;;;;;;;5.95;100.00;101637.84;4998184;28;20096;-83
2021/11/18 08:21:58;;;;;;;28.03;9.80;;;;;;;6.01;100.00;101637.06;5016483;28;20042;-84
2021/11/18 08:24:25;;;;;;;18.40;9.13;;;;;;;5.98;100.00;101651.03;4998699;28;20072;-83
2021/11/18 08:26:52;;;;;;;22.33;8.53;;;;;;;6.02;100.00;101650.19;4994915;28;20046;-83
2021/11/18 08:29:22;;;;;;;17.60;8.70;;;;;;;6.01;100.00;101643.19;4998064;28;20041;-84
2021/11/18 08:31:49;;;;;;;14.10;8.07;;;;;;;6.00;100.00;101645.78;5009309;28;20099;-82
2021/11/18 08:34:18;;;;;;;17.87;9.30;;;;;;;6.11;100.00;101638.94;5017852;28;20041;-83
2021/11/18 08:36:46;;;;;;;24.43;9.47;;;;;;;6.13;100.00;101635.47;5035344;28;20045;-83
2021/11/18 08:39:20;;;;;;;16.83;8.60;;;;;;;6.14;100.00;101629.38;5006372;28;20045;-83
2021/11/18 08:41:49;;;;;;;23.23;8.97;;;;;;;6.10;100.00;101617.06;5033057;28;20095;-83
2021/11/18 08:44:17;;;;;;;18.40;7.70;;;;;;;6.17;100.00;101611.03;5030819;28;20151;-84
2021/11/18 08:46:45;;;;;;;18.20;8.27;;;;;;;6.12;100.00;101617.97;5032010;28;20048;-84
2021/11/18 08:49:12;;;;;;;19.37;8.43;;;;;;;6.12;100.00;101619.72;4997909;28;20050;-83
2021/11/18 08:51:39;;;;;;;15.77;9.00;;;;;;;6.12;100.00;101604.84;4999510;28;20136;-83
2021/11/18 08:54:11;;;;;;;21.83;9.57;;;;;;;6.23;100.00;101607.63;5013704;28;20056;-83
2021/11/18 08:56:38;;;;;;;20.80;7.90;;;;;;;6.17;100.00;101611.03;5015546;28;20041;-83
2021/11/18 08:59:05;;;;;;;17.97;7.43;;;;;;;6.16;100.00;101632.91;5030254;28;20045;-83
2021/11/18 09:01:39;;;;;;;17.03;7.47;;;;;;;6.21;100.00;101633.81;4995382;28;20100;-83
2021/11/18 09:04:12;;;;;;;21.52;9.10;;;;;;;6.32;100.00;101618.25;5009608;28;20070;-85
2021/11/18 09:06:40;;;;;;;19.07;8.50;;;;;;;6.25;100.00;101613.78;4995079;28;20050;-82
2021/11/18 09:09:08;;;;;;;18.50;7.87;;;;;;;6.29;100.00;101615.56;4994118;28;20041;-83
2021/11/18 09:11:35;;;;;;;29.60;11.07;;;;;;;6.36;100.00;101606.91;4998773;28;20045;-82
2021/11/18 09:14:04;;;;;;;25.63;8.63;;;;;;;6.42;100.00;101619.22;5009264;28;20034;-83
2021/11/18 09:16:33;;;;;;;18.90;8.60;;;;;;;6.41;100.00;101609.59;5000333;28;20044;-83
2021/11/18 09:19:02;;;;;;;19.20;7.90;;;;;;;6.44;100.00;101614.88;4996778;28;20052;-83
2021/11/18 09:21:29;;;;;;;17.77;8.17;;;;;;;6.43;100.00;101616.59;4998957;28;20053;-83
2021/11/18 09:24:06;;;;;;;20.57;8.13;;;;;;;6.43;100.00;101613.09;5013243;28;20110;-82
2021/11/18 09:26:36;;;;;;;22.93;9.17;;;;;;;6.48;100.00;101606.19;5015368;28;20042;-83
2021/11/18 09:29:04;;;;;;;17.43;7.93;;;;;;;6.48;100.00;101601.81;5030075;28;20052;-84
2021/11/18 09:31:31;;;;;;;13.50;8.50;;;;;;;6.47;100.00;101600.03;5031731;28;20510;-85
2021/11/18 09:33:58;;;;;;;16.67;7.93;;;;;;;6.47;100.00;101610.56;5029418;28;20038;-83
2021/11/18 09:36:27;;;;;;;21.73;9.13;;;;;;;6.49;100.00;101618.44;4998566;28;20049;-82
2021/11/18 09:38:55;;;;;;;20.87;8.87;;;;;;;6.58;100.00;101610.66;4997134;28;20494;-84
2021/11/18 09:41:27;;;;;;;19.90;8.73;;;;;;;6.61;100.00;101615.94;5031105;28;20056;-82
2021/11/18 09:44:03;;;;;;;18.23;7.87;;;;;;;6.61;100.00;101617.69;5032021;28;20033;-83
2021/11/18 09:47:11;;;;;;;23.33;9.17;;;;;;;6.63;100.00;101619.44;5035442;28;20103;-82
2021/11/18 09:50:02;;;;;;;20.87;8.30;;;;;;;6.69;100.00;101616.91;5009874;28;20495;-84
2021/11/18 09:52:32;;;;;;;23.07;8.73;;;;;;;6.66;100.00;101622.13;5010943;28;20502;-84
2021/11/18 09:55:22;;;;;;;17.27;7.90;;;;;;;6.84;100.00;101616.19;5010776;28;20118;-82
2021/11/18 09:58:13;;;;;;;20.23;7.83;;;;;;;6.92;100.00;101621.53;5034870;28;20099;-83
2021/11/18 10:01:05;;;;;;;18.30;8.17;;;;;;;7.04;100.00;101624.25;5012179;28;20041;-82
2021/11/18 10:03:52;;;;;;;17.43;7.33;;;;;;;7.14;100.00;101630.47;5029776;28;20038;-82
2021/11/18 10:06:25;;;;;;;24.10;8.60;;;;;;;7.20;100.00;101636.66;5015053;28;20417;-82
2021/11/18 10:08:54;;;;;;;16.70;7.43;;;;;;;7.17;100.00;101634.03;5012169;28;20041;-82
2021/11/18 10:11:33;;;;;;;17.03;7.63;;;;;;;7.19;100.00;101637.53;5030928;28;20494;-81
2021/11/18 10:14:19;;;;;;;21.43;7.73;;;;;;;7.32;100.00;101628.91;5028982;28;20041;-82
2021/11/18 10:17:09;;;;;;;23.07;9.03;;;;;;;7.35;100.00;101630.66;5010127;28;20046;-84
2021/11/18 10:19:47;;;;;;;16.27;7.07;;;;;;;7.31;100.00;101640.28;4994835;28;20049;-83
2021/11/18 10:22:16;;;;;;;18.07;6.67;;;;;;;7.38;100.00;101635.94;5043032;28;20069;-83
2021/11/18 10:24:46;;;;;;;19.07;7.60;;;;;;;7.34;100.00;101636.78;5046542;28;20780;-82
2021/11/18 10:27:24;;;;;;;21.13;8.73;;;;;;;7.38;100.00;101628.03;5011281;28;20041;-82
2021/11/18 10:30:11;;;;;;;15.30;7.30;;;;;;;7.40;100.00;101635.94;5028961;28;20095;-83
2021/11/18 10:32:53;;;;;;;16.57;7.03;;;;;;;7.40;100.00;101615.81;5010792;28;20046;-82
2021/11/18 10:35:39;;;;;;;24.97;7.67;;;;;;;7.44;100.00;101612.34;5037793;28;20107;-84
2021/11/18 10:38:37;;;;;;;18.85;7.88;;;;;;;7.50;100.00;101608.88;5040107;28;20052;-83
2021/11/18 10:41:16;;;;;;;23.42;9.60;;;;;;;7.53;100.00;101604.50;5033408;28;20052;-84
2021/11/18 10:43:47;;;;;;;17.88;7.10;;;;;;;7.54;100.00;101594.88;5018425;28;20572;-84
2021/11/18 10:46:25;;;;;;;18.60;8.07;;;;;;;7.55;100.00;101600.13;5012798;28;20041;-82
2021/11/18 10:48:59;;;;;;;13.95;7.20;;;;;;;7.53;100.00;101601.00;4994907;28;20140;-83
2021/11/18 10:51:33;;;;;;;21.10;7.78;;;;;;;7.49;100.00;101586.97;5013043;28;20049;-83
2021/11/18 10:54:01;;;;;;;;;;;;;;;7.58;100.00;101592.28;4995604;28;20053;-83
2021/11/18 10:56:40;;;;;;;23.07;8.90;;;;;;;7.61;100.00;101583.53;5012897;28;20266;-83
2021/11/18 10:59:13;;;;;;;17.80;8.23;;;;;;;7.67;100.00;101580.94;5027314;28;20045;-82
2021/11/18 11:01:43;;;;;;;22.50;8.30;;;;;;;7.68;100.00;101587.97;4996247;28;20135;-83
2021/11/18 11:04:36;;;;;;;19.15;8.88;;;;;;;7.75;100.00;101589.75;5011179;28;20514;-84
2021/11/18 11:07:04;;;;;;;20.20;9.02;;;;;;;7.79;100.00;101586.25;5020256;28;20036;-83
2021/11/18 11:09:38;;;;;;;23.05;10.15;;;;;;;7.87;100.00;101587.19;5040023;28;20044;-82
2021/11/18 11:12:11;;;;;;;23.08;11.82;;;;;;;7.99;100.00;101575.88;5013614;28;20494;-83
2021/11/18 11:15:02;;;;;;;20.02;9.88;;;;;;;8.03;100.00;101575.00;5011251;28;20053;-83
2021/11/18 11:18:11;;;;;;;22.00;9.65;;;;;;;8.06;100.00;101566.22;4988698;28;20053;-83
2021/11/18 11:21:04;;;;;;;25.95;10.75;;;;;;;8.24;100.00;101566.31;5009610;28;20049;-82
2021/11/18 11:24:10;;;;;;;28.52;12.88;;;;;;;8.26;100.00;101580.34;5009054;28;20050;-82
2021/11/18 11:26:57;;;;;;;23.13;8.68;;;;;;;8.36;100.00;101576.91;5002465;28;20049;-83
2021/11/18 11:29:30;;;;;;;17.27;8.98;;;;;;;8.33;100.00;101586.53;5027330;28;20461;-82